createdAt,value
2023-01-12T00:02:07.547Z,76.20
2023-01-12T00:04:36.192Z,76.12
2023-01-12T00:07:06.767Z,76.43
2023-01-12T00:09:34.837Z,76.59
2023-01-12T00:12:06.152Z,76.24
2023-01-12T00:14:34.875Z,76.06
2023-01-12T00:17:02.963Z,75.94
2023-01-12T00:19:31.943Z,75.55
2023-01-12T00:22:14.689Z,75.36
2023-01-12T00:24:44.474Z,75.75
2023-01-12T00:27:14.736Z,75.71
2023-01-12T00:29:42.656Z,75.83
2023-01-12T00:32:12.172Z,75.89
2023-01-12T00:34:40.146Z,75.45
2023-01-12T00:37:08.311Z,75.45
2023-01-12T00:39:40.459Z,74.95
2023-01-12T00:42:27.497Z,75.15
2023-01-12T00:45:13.794Z,75.53
2023-01-12T00:47:42.887Z,76.03
2023-01-12T00:50:10.959Z,76.30
2023-01-12T00:52:38.935Z,76.39
2023-01-12T00:55:07.206Z,76.40
2023-01-12T00:57:35.176Z,76.42
2023-01-12T01:00:03.248Z,76.68
2023-01-12T01:02:31.434Z,76.69
2023-01-12T01:04:59.436Z,76.48
2023-01-12T01:07:27.239Z,76.28
2023-01-12T01:09:55.031Z,75.99
2023-01-12T01:12:22.848Z,75.34
2023-01-12T01:14:50.960Z,75.61
2023-01-12T01:17:19.004Z,75.97
2023-01-12T01:19:48.407Z,75.97
2023-01-12T01:22:16.277Z,75.81
2023-01-12T01:24:44.273Z,75.60
2023-01-12T01:27:12.209Z,75.78
2023-01-12T01:29:40.522Z,75.82
2023-01-12T01:32:08.493Z,75.92
2023-01-12T01:34:37.313Z,75.98
2023-01-12T01:37:05.121Z,76.21
2023-01-12T01:39:33.011Z,75.85
2023-01-12T01:42:01.402Z,75.62
2023-01-12T01:44:29.384Z,75.40
2023-01-12T01:47:05.935Z,76.01
2023-01-12T01:49:54.419Z,76.56
2023-01-12T01:52:42.628Z,76.66
2023-01-12T01:55:12.944Z,76.69
2023-01-12T01:58:01.194Z,76.32
2023-01-12T02:00:29.674Z,76.34
2023-01-12T02:02:58.651Z,76.21
2023-01-12T02:05:27.973Z,76.19
2023-01-12T02:08:00.754Z,76.19
2023-01-12T02:10:28.835Z,75.85
2023-01-12T02:13:15.325Z,75.24
2023-01-12T02:16:20.824Z,74.81
2023-01-12T02:18:51.705Z,74.56
2023-01-12T02:21:31.975Z,74.61
2023-01-12T02:24:32.330Z,74.61
2023-01-12T02:27:18.801Z,74.00
2023-01-12T02:30:07.970Z,73.82
2023-01-12T02:32:35.837Z,73.39
2023-01-12T02:35:28.482Z,73.37
2023-01-12T02:37:59.960Z,73.33
2023-01-12T02:40:34.263Z,73.68
2023-01-12T02:43:09.222Z,74.08
2023-01-12T02:45:43.080Z,74.80
2023-01-12T02:48:26.422Z,75.19
2023-01-12T02:50:57.880Z,75.41
2023-01-12T02:53:44.995Z,75.55
2023-01-12T02:56:15.742Z,76.11
2023-01-12T02:58:46.158Z,76.11
2023-01-12T03:01:15.873Z,76.41
2023-01-12T03:03:43.833Z,76.76
2023-01-12T03:06:15.292Z,76.82
2023-01-12T03:08:43.685Z,76.77
2023-01-12T03:11:19.321Z,76.98
2023-01-12T03:13:49.853Z,77.12
2023-01-12T03:16:21.095Z,76.93
2023-01-12T03:18:49.165Z,76.93
2023-01-12T03:21:22.972Z,77.54
2023-01-12T03:23:55.871Z,78.01
2023-01-12T03:26:27.956Z,78.19
2023-01-12T03:29:02.359Z,78.41
2023-01-12T03:31:30.645Z,78.73
2023-01-12T03:33:59.198Z,78.58
2023-01-12T03:36:33.008Z,78.59
2023-01-12T03:39:03.849Z,78.13
2023-01-12T03:41:31.709Z,77.89
2023-01-12T03:44:01.421Z,77.82
2023-01-12T03:46:32.176Z,77.97
2023-01-12T03:49:08.957Z,78.01
2023-01-12T03:51:39.989Z,78.14
2023-01-12T03:54:09.890Z,78.30
2023-01-12T03:56:39.499Z,78.33
2023-01-12T03:59:09.632Z,78.30
2023-01-12T04:01:37.893Z,77.84
2023-01-12T04:04:06.064Z,78.30
2023-01-12T04:06:33.933Z,79.95
2023-01-12T04:09:01.805Z,80.86
2023-01-12T04:11:48.512Z,80.14
2023-01-12T04:14:16.333Z,80.06
2023-01-12T04:16:44.248Z,79.80
2023-01-12T04:19:12.319Z,79.56
2023-01-12T04:21:58.819Z,79.37
2023-01-12T04:24:26.691Z,79.23
2023-01-12T04:26:54.677Z,79.21
2023-01-12T04:29:22.523Z,79.23
2023-01-12T04:31:50.529Z,79.08
2023-01-12T04:34:18.888Z,78.94
2023-01-12T04:36:46.860Z,79.05
2023-01-12T04:39:14.823Z,79.25
2023-01-12T04:41:42.782Z,79.62
2023-01-12T04:44:10.751Z,79.47
2023-01-12T04:46:38.722Z,79.50
2023-01-12T04:49:06.794Z,79.23
2023-01-12T04:51:35.177Z,78.78
2023-01-12T04:54:03.143Z,78.02
2023-01-12T04:56:31.208Z,78.45
2023-01-12T04:59:01.161Z,79.48
2023-01-12T05:01:29.875Z,79.92
2023-01-12T05:04:00.811Z,80.33
2023-01-12T05:06:28.922Z,80.19
2023-01-12T05:09:15.338Z,80.35
2023-01-12T05:11:43.319Z,80.34
2023-01-12T05:14:11.370Z,80.31
2023-01-12T05:16:39.471Z,80.37
2023-01-12T05:19:09.575Z,80.54
2023-01-12T05:21:37.535Z,80.68
2023-01-12T05:24:05.808Z,80.65
2023-01-12T05:26:33.678Z,81.06
2023-01-12T05:29:01.856Z,81.35
2023-01-12T05:31:29.812Z,81.51
2023-01-12T05:33:57.788Z,81.54
2023-01-12T05:36:26.604Z,81.65
2023-01-12T05:38:54.660Z,81.82
2023-01-12T05:41:23.339Z,81.61
2023-01-12T05:43:51.306Z,81.28
2023-01-12T05:46:21.535Z,80.98
2023-01-12T05:48:50.542Z,81.20
2023-01-12T05:51:19.108Z,81.04
2023-01-12T05:53:46.944Z,81.83
2023-01-12T05:56:22.206Z,83.26
2023-01-12T05:58:51.431Z,81.41
2023-01-12T06:01:19.953Z,80.41
2023-01-12T06:03:55.247Z,80.01
2023-01-12T06:06:24.124Z,79.63
2023-01-12T06:08:53.215Z,79.26
2023-01-12T06:11:40.034Z,78.98
2023-01-12T06:14:09.035Z,79.04
2023-01-12T06:16:37.827Z,78.93
2023-01-12T06:19:06.290Z,79.01
2023-01-12T06:21:34.768Z,78.78
2023-01-12T06:24:02.759Z,78.66
2023-01-12T06:26:30.709Z,78.29
2023-01-12T06:28:58.686Z,78.59
2023-01-12T06:31:26.681Z,78.33
2023-01-12T06:33:54.724Z,78.28
2023-01-12T06:36:22.697Z,78.22
2023-01-12T06:38:50.660Z,78.44
2023-01-12T06:41:36.895Z,78.24
2023-01-12T06:44:05.074Z,78.48
2023-01-12T06:46:33.089Z,78.89
2023-01-12T06:49:01.071Z,79.10
2023-01-12T06:51:29.347Z,79.13
2023-01-12T06:53:57.218Z,79.19
2023-01-12T06:56:25.187Z,79.53
2023-01-12T06:58:53.256Z,79.90
2023-01-12T07:01:21.296Z,79.91
2023-01-12T07:03:49.305Z,79.76
2023-01-12T07:06:17.177Z,79.68
2023-01-12T07:08:45.243Z,79.47
2023-01-12T07:11:15.056Z,79.34
2023-01-12T07:13:43.140Z,79.12
2023-01-12T07:16:11.179Z,78.94
2023-01-12T07:18:39.271Z,78.67
2023-01-12T07:21:08.166Z,78.53
2023-01-12T07:23:38.363Z,78.71
2023-01-12T07:26:06.248Z,78.67
2023-01-12T07:28:34.525Z,78.58
2023-01-12T07:31:03.391Z,78.54
2023-01-12T07:33:31.793Z,78.48
2023-01-12T07:36:00.455Z,78.60
2023-01-12T07:38:29.077Z,79.44
2023-01-12T07:41:00.835Z,79.84
2023-01-12T07:43:28.996Z,79.46
2023-01-12T07:45:57.787Z,79.18
2023-01-12T07:48:27.683Z,79.27
2023-01-12T07:50:58.637Z,79.30
2023-01-12T07:53:26.525Z,79.24
2023-01-12T07:55:54.474Z,79.33
2023-01-12T07:58:22.351Z,79.49
2023-01-12T08:00:50.256Z,79.34
2023-01-12T08:03:18.281Z,79.43
2023-01-12T08:05:46.147Z,79.46
2023-01-12T08:08:14.029Z,79.54
2023-01-12T08:10:43.852Z,79.40
2023-01-12T08:13:11.874Z,79.77
2023-01-12T08:15:41.917Z,79.91
2023-01-12T08:18:13.888Z,80.00
2023-01-12T08:20:42.527Z,80.31
2023-01-12T08:23:20.070Z,80.46
2023-01-12T08:25:56.308Z,80.58
2023-01-12T08:28:29.003Z,80.57
2023-01-12T08:30:57.180Z,80.52
2023-01-12T08:33:25.968Z,80.50
2023-01-12T08:35:54.242Z,80.51
2023-01-12T08:38:22.217Z,80.29
2023-01-12T08:41:08.717Z,80.38
2023-01-12T08:43:55.230Z,80.45
2023-01-12T08:46:23.210Z,80.44
2023-01-12T08:48:51.065Z,80.55
2023-01-12T08:51:19.146Z,80.13
2023-01-12T08:53:47.618Z,79.95
2023-01-12T08:56:15.480Z,80.94
2023-01-12T08:58:43.449Z,82.25
2023-01-12T09:01:12.807Z,81.67
2023-01-12T09:03:41.235Z,80.43
2023-01-12T09:06:32.455Z,79.18
2023-01-12T09:09:01.853Z,79.05
2023-01-12T09:11:30.853Z,79.30
2023-01-12T09:13:59.233Z,79.05
2023-01-12T09:16:28.043Z,79.11
2023-01-12T09:18:56.803Z,79.64
2023-01-12T09:21:26.009Z,79.40
2023-01-12T09:23:54.817Z,79.17
2023-01-12T09:26:24.016Z,79.31
2023-01-12T09:28:51.957Z,79.34
2023-01-12T09:31:22.340Z,79.69
2023-01-12T09:33:50.569Z,79.93
2023-01-12T09:36:19.966Z,80.45
2023-01-12T09:38:48.442Z,80.70
2023-01-12T09:41:39.139Z,80.95
2023-01-12T09:44:34.197Z,80.76
2023-01-12T09:47:04.000Z,80.84
2023-01-12T09:49:37.863Z,81.10
2023-01-12T09:52:15.622Z,81.20
2023-01-12T09:54:45.171Z,80.67
2023-01-12T09:57:34.431Z,80.66
2023-01-12T10:00:06.509Z,81.28
2023-01-12T10:02:43.504Z,81.60
2023-01-12T10:05:38.784Z,81.03
2023-01-12T10:08:14.959Z,81.22
2023-01-12T10:10:46.119Z,80.89
2023-01-12T10:13:14.788Z,81.42
2023-01-12T10:15:57.712Z,81.35
2023-01-12T10:18:33.584Z,81.04
2023-01-12T10:21:02.460Z,81.04
2023-01-12T10:23:30.941Z,81.18
2023-01-12T10:26:15.905Z,81.66
2023-01-12T10:28:46.945Z,82.01
2023-01-12T10:31:33.297Z,81.90
2023-01-12T10:34:08.894Z,81.98
2023-01-12T10:36:43.841Z,82.05
2023-01-12T10:39:26.847Z,82.57
2023-01-12T10:42:36.497Z,82.44
2023-01-12T10:45:16.682Z,82.75
2023-01-12T10:47:46.495Z,82.66
2023-01-12T10:50:25.522Z,82.74
2023-01-12T10:52:54.999Z,82.34
2023-01-12T10:55:23.762Z,82.44
2023-01-12T10:57:52.884Z,82.57
2023-01-12T11:00:24.726Z,82.66
2023-01-12T11:02:54.392Z,83.11
2023-01-12T11:05:28.269Z,83.02
2023-01-12T11:07:56.473Z,83.23
2023-01-12T11:10:27.475Z,82.97
2023-01-12T11:12:57.500Z,82.66
2023-01-12T11:15:25.593Z,82.55
2023-01-12T11:18:12.110Z,82.90
2023-01-12T11:20:43.107Z,83.40
2023-01-12T11:23:14.984Z,83.81
2023-01-12T11:25:45.293Z,83.91
2023-01-12T11:28:21.355Z,83.98
2023-01-12T11:30:51.924Z,84.52
2023-01-12T11:33:38.486Z,84.06
2023-01-12T11:36:06.867Z,84.15
2023-01-12T11:38:43.858Z,84.25
2023-01-12T11:41:21.150Z,84.74
2023-01-12T11:44:05.910Z,85.14
2023-01-12T11:46:39.139Z,85.39
2023-01-12T11:49:18.939Z,85.77
2023-01-12T11:51:51.419Z,86.00
2023-01-12T11:54:19.904Z,86.18
2023-01-12T11:56:57.098Z,86.18
2023-01-12T11:59:48.302Z,86.12
2023-01-12T12:02:16.122Z,86.22
2023-01-12T12:04:50.498Z,86.64
2023-01-12T12:07:38.734Z,86.66
2023-01-12T12:10:27.847Z,86.87
2023-01-12T12:13:01.814Z,86.65
2023-01-12T12:15:32.785Z,85.93
2023-01-12T12:18:23.852Z,86.35
2023-01-12T12:21:10.464Z,86.59
2023-01-12T12:23:44.471Z,86.64
2023-01-12T12:26:28.124Z,86.53
2023-01-12T12:29:05.300Z,86.54
2023-01-12T12:31:33.264Z,86.53
2023-01-12T12:34:04.202Z,85.45
2023-01-12T12:36:47.535Z,85.43
2023-01-12T12:39:15.504Z,85.53
2023-01-12T12:42:14.395Z,85.65
2023-01-12T12:45:10.113Z,85.75
2023-01-12T12:47:47.512Z,85.54
2023-01-12T12:50:30.647Z,85.70
2023-01-12T12:53:04.279Z,85.82
2023-01-12T12:55:32.615Z,85.92
2023-01-12T12:58:05.504Z,86.13
2023-01-12T13:00:42.608Z,86.05
2023-01-12T13:03:10.949Z,85.90
2023-01-12T13:05:39.957Z,85.60
2023-01-12T13:08:19.192Z,85.79
2023-01-12T13:10:54.611Z,86.13
2023-01-12T13:13:38.880Z,86.45
2023-01-12T13:16:15.858Z,86.92
2023-01-12T13:19:04.326Z,87.00
2023-01-12T13:21:41.608Z,87.37
2023-01-12T13:24:09.675Z,87.17
2023-01-12T13:26:39.541Z,87.33
2023-01-12T13:29:25.991Z,87.46
2023-01-12T13:31:57.656Z,87.07
2023-01-12T13:34:46.361Z,86.84
2023-01-12T13:37:17.304Z,86.42
2023-01-12T13:40:05.486Z,86.48
2023-01-12T13:42:52.417Z,86.55
2023-01-12T13:45:21.363Z,86.82
2023-01-12T13:47:51.329Z,87.07
2023-01-12T13:50:21.531Z,87.03
2023-01-12T13:52:57.899Z,87.33
2023-01-12T13:55:28.231Z,87.24
2023-01-12T13:57:57.427Z,87.26
2023-01-12T14:00:26.004Z,87.38
2023-01-12T14:02:55.619Z,87.29
2023-01-12T14:05:26.446Z,87.12
2023-01-12T14:07:54.417Z,86.75
2023-01-12T14:10:25.336Z,86.83
2023-01-12T14:12:56.396Z,87.05
2023-01-12T14:15:59.623Z,87.17
2023-01-12T14:18:29.241Z,87.26
2023-01-12T14:20:58.819Z,87.16
2023-01-12T14:23:26.812Z,87.00
2023-01-12T14:26:13.382Z,86.90
2023-01-12T14:28:45.963Z,87.21
2023-01-12T14:31:19.793Z,87.55
2023-01-12T14:33:52.003Z,87.44
2023-01-12T14:36:22.360Z,87.01
2023-01-12T14:38:51.160Z,87.15
2023-01-12T14:41:48.118Z,87.63
2023-01-12T14:44:35.769Z,87.64
2023-01-12T14:47:03.809Z,87.70
2023-01-12T14:49:33.420Z,88.28
2023-01-12T14:52:02.612Z,87.99
2023-01-12T14:54:34.587Z,87.57
2023-01-12T14:57:08.491Z,87.78
2023-01-12T14:59:44.542Z,87.81
2023-01-12T15:02:15.588Z,87.56
2023-01-12T15:05:00.662Z,87.01
2023-01-12T15:07:31.388Z,87.59
2023-01-12T15:10:00.691Z,87.50
2023-01-12T15:12:28.555Z,87.07
2023-01-12T15:15:15.264Z,86.13
2023-01-12T15:18:02.388Z,85.49
2023-01-12T15:20:51.759Z,85.40
2023-01-12T15:23:40.210Z,84.98
2023-01-12T15:26:08.183Z,84.56
2023-01-12T15:28:36.046Z,84.86
2023-01-12T15:31:04.012Z,84.98
2023-01-12T15:33:32.601Z,85.28
2023-01-12T15:36:00.667Z,84.59
2023-01-12T15:38:29.261Z,84.29
2023-01-12T15:40:57.729Z,84.00
2023-01-12T15:43:25.597Z,84.12
2023-01-12T15:45:54.855Z,84.85
2023-01-12T15:48:22.976Z,85.01
2023-01-12T15:50:50.939Z,85.53
2023-01-12T15:53:22.933Z,86.06
2023-01-12T15:55:50.882Z,85.97
2023-01-12T15:58:19.805Z,85.96
2023-01-12T16:00:47.875Z,86.58
2023-01-12T16:03:44.235Z,86.85
2023-01-12T16:06:04.302Z,86.67
2023-01-12T16:08:32.107Z,86.73
2023-01-12T16:11:17.913Z,86.77
2023-01-12T16:13:48.027Z,86.82
2023-01-12T16:16:16.843Z,86.95
2023-01-12T16:18:44.941Z,86.76
2023-01-12T16:21:15.222Z,86.86
2023-01-12T16:23:43.176Z,86.68
2023-01-12T16:26:12.185Z,86.92
2023-01-12T16:28:40.775Z,87.30
2023-01-12T16:31:13.960Z,87.57
2023-01-12T16:33:42.737Z,87.81
2023-01-12T16:36:11.373Z,87.52
2023-01-12T16:38:39.812Z,87.29
2023-01-12T16:41:12.281Z,87.09
2023-01-12T16:43:40.092Z,87.05
2023-01-12T16:46:08.063Z,87.19
2023-01-12T16:48:35.964Z,87.30
2023-01-12T16:51:03.901Z,87.59
2023-01-12T16:53:31.704Z,87.88
2023-01-12T16:56:02.254Z,87.92
2023-01-12T16:58:30.326Z,88.16
2023-01-12T17:00:59.437Z,88.07
2023-01-12T17:03:27.812Z,88.00
2023-01-12T17:05:55.842Z,88.19
2023-01-12T17:08:23.948Z,88.31
2023-01-12T17:10:52.021Z,88.69
2023-01-12T17:13:20.083Z,88.97
2023-01-12T17:15:48.708Z,88.90
2023-01-12T17:18:16.851Z,88.83
2023-01-12T17:20:45.309Z,88.77
2023-01-12T17:23:13.712Z,88.52
2023-01-12T17:25:41.955Z,88.43
2023-01-12T17:28:10.055Z,87.61
2023-01-12T17:30:39.337Z,87.04
2023-01-12T17:33:07.362Z,87.76
2023-01-12T17:35:35.703Z,87.75
2023-01-12T17:38:04.009Z,87.04
2023-01-12T17:40:33.119Z,87.70
2023-01-12T17:43:03.713Z,88.39
2023-01-12T17:45:32.703Z,88.34
2023-01-12T17:48:01.502Z,88.62
2023-01-12T17:50:29.665Z,88.28
2023-01-12T17:52:57.633Z,88.61
2023-01-12T17:55:26.353Z,88.72
2023-01-12T17:57:54.398Z,89.03
2023-01-12T18:00:22.548Z,88.18
2023-01-12T18:02:50.475Z,88.12
2023-01-12T18:05:18.373Z,88.00
2023-01-12T18:07:46.379Z,87.69
2023-01-12T18:10:14.339Z,87.02
2023-01-12T18:12:42.207Z,87.33
2023-01-12T18:15:10.478Z,86.91
2023-01-12T18:17:38.356Z,87.30
2023-01-12T18:20:07.272Z,86.99
2023-01-12T18:22:35.151Z,87.17
2023-01-12T18:25:03.081Z,87.23
2023-01-12T18:27:31.149Z,87.51
2023-01-12T18:29:59.025Z,87.87
2023-01-12T18:32:27.104Z,88.32
2023-01-12T18:34:56.812Z,88.61
2023-01-12T18:37:24.891Z,89.33
2023-01-12T18:39:52.717Z,89.44
2023-01-12T18:42:39.555Z,89.42
2023-01-12T18:45:07.825Z,89.45
2023-01-12T18:47:54.312Z,89.65
2023-01-12T18:50:40.734Z,89.67
2023-01-12T18:53:28.367Z,89.83
2023-01-12T18:55:57.425Z,89.71
2023-01-12T18:58:27.998Z,91.32
2023-01-12T19:01:01.411Z,92.27
2023-01-12T19:03:29.765Z,90.77
2023-01-12T19:05:57.749Z,90.46
2023-01-12T19:08:29.721Z,90.47
2023-01-12T19:11:06.581Z,90.04
2023-01-12T19:13:53.292Z,89.76
2023-01-12T19:16:39.694Z,89.38
2023-01-12T19:19:08.203Z,89.58
2023-01-12T19:21:54.883Z,89.78
2023-01-12T19:24:41.492Z,90.11
2023-01-12T19:27:30.151Z,89.90
2023-01-12T19:29:58.118Z,89.38
2023-01-12T19:32:26.185Z,89.10
2023-01-12T19:35:02.294Z,89.04
2023-01-12T19:37:34.204Z,89.07
2023-01-12T19:40:13.260Z,89.27
2023-01-12T19:43:00.117Z,89.48
2023-01-12T19:45:28.325Z,88.97
2023-01-12T19:47:56.157Z,88.66
2023-01-12T19:50:24.263Z,88.39
2023-01-12T19:52:52.221Z,88.51
2023-01-12T19:55:21.739Z,88.47
2023-01-12T19:57:49.804Z,88.13
2023-01-12T20:00:18.189Z,88.14
2023-01-12T20:02:46.549Z,88.38
2023-01-12T20:05:22.120Z,88.64
2023-01-12T20:07:51.222Z,88.63
2023-01-12T20:10:20.319Z,88.49
2023-01-12T20:12:48.808Z,88.39
2023-01-12T20:15:18.305Z,88.39
2023-01-12T20:17:46.775Z,88.76
2023-01-12T20:20:15.275Z,88.73
2023-01-12T20:22:43.231Z,88.87
2023-01-12T20:25:11.204Z,88.96
2023-01-12T20:27:39.477Z,89.08
2023-01-12T20:30:08.472Z,89.23
2023-01-12T20:32:42.901Z,89.34
2023-01-12T20:35:13.425Z,89.37
2023-01-12T20:37:41.395Z,89.29
2023-01-12T20:40:10.527Z,88.33
2023-01-12T20:42:38.881Z,89.31
2023-01-12T20:45:07.756Z,90.05
2023-01-12T20:47:35.718Z,90.95
2023-01-12T20:50:06.967Z,91.14
2023-01-12T20:52:35.672Z,91.28
2023-01-12T20:55:05.579Z,91.37
2023-01-12T20:57:34.971Z,91.01
2023-01-12T21:00:03.257Z,90.87
2023-01-12T21:02:31.182Z,90.95
2023-01-12T21:04:59.089Z,90.69
2023-01-12T21:07:27.255Z,90.39
2023-01-12T21:09:55.236Z,90.39
2023-01-12T21:12:23.970Z,90.29
2023-01-12T21:14:52.914Z,90.42
2023-01-12T21:17:21.313Z,90.72
2023-01-12T21:19:49.254Z,90.87
2023-01-12T21:22:17.121Z,91.16
2023-01-12T21:24:45.090Z,91.23
2023-01-12T21:27:12.961Z,91.25
2023-01-12T21:29:40.742Z,91.23
2023-01-12T21:32:08.797Z,91.25
2023-01-12T21:34:36.637Z,91.62
2023-01-12T21:37:04.634Z,91.96
2023-01-12T21:39:32.807Z,92.01
2023-01-12T21:42:19.724Z,92.08
2023-01-12T21:44:47.683Z,91.97
2023-01-12T21:47:15.764Z,91.95
2023-01-12T21:49:43.625Z,92.03
2023-01-12T21:52:11.711Z,92.33
2023-01-12T21:54:39.682Z,92.38
2023-01-12T21:57:07.844Z,92.48
2023-01-12T21:59:35.819Z,92.22
2023-01-12T22:02:03.772Z,91.91
2023-01-12T22:04:32.794Z,91.69
2023-01-12T22:07:00.858Z,91.44
2023-01-12T22:09:29.835Z,91.51
2023-01-12T22:11:57.814Z,91.76
2023-01-12T22:14:25.676Z,91.83
2023-01-12T22:16:53.700Z,91.29
2023-01-12T22:19:21.721Z,91.16
2023-01-12T22:21:49.690Z,91.19
2023-01-12T22:24:17.770Z,90.94
2023-01-12T22:26:45.732Z,90.36
2023-01-12T22:29:13.603Z,90.17
2023-01-12T22:31:41.496Z,89.95
2023-01-12T22:34:09.435Z,89.64
2023-01-12T22:36:42.939Z,89.97
2023-01-12T22:39:11.721Z,90.20
2023-01-12T22:41:40.521Z,89.31
2023-01-12T22:44:08.493Z,88.96
2023-01-12T22:46:37.114Z,88.73
2023-01-12T22:49:05.046Z,88.30
2023-01-12T22:51:33.414Z,87.98
2023-01-12T22:54:01.652Z,87.85
2023-01-12T22:56:29.762Z,87.81
2023-01-12T22:58:57.772Z,87.84
2023-01-12T23:01:26.360Z,88.15
2023-01-12T23:03:57.872Z,88.52
2023-01-12T23:06:26.446Z,88.70
2023-01-12T23:08:54.724Z,88.95
2023-01-12T23:11:24.125Z,89.31
2023-01-12T23:13:52.919Z,89.61
2023-01-12T23:16:21.265Z,89.89
2023-01-12T23:18:50.496Z,89.98
2023-01-12T23:21:26.511Z,89.84
2023-01-12T23:23:58.939Z,90.07
2023-01-12T23:26:28.107Z,90.20
2023-01-12T23:28:57.116Z,90.18
2023-01-12T23:31:26.740Z,90.01
2023-01-12T23:33:55.102Z,90.00
2023-01-12T23:36:24.695Z,90.03
2023-01-12T23:38:53.295Z,89.89
2023-01-12T23:41:22.292Z,89.90
2023-01-12T23:43:51.698Z,89.97
2023-01-12T23:46:23.423Z,89.97
2023-01-12T23:48:52.764Z,89.95
2023-01-12T23:51:21.278Z,89.93
2023-01-12T23:53:54.004Z,89.98
2023-01-12T23:56:22.399Z,89.86
2023-01-12T23:58:50.254Z,89.59
